»·PEaware :: N8271G KSBP-KSBP

N8271G :: KSBP-KSBP

FLIGHT INFORMATION

Flight Status: Arrived
Operator: Privately registered:
United States
More flights under this callsign
Pilot: Simon B. (22905)
Aircraft: CESSNA 172 SKYHAWK
(C172)
More flights by this aircraft type
Origin: KSBP San Luis Co Regl
United States
Destination: KSBP San Luis Co Regl
United States
More flights between these airports :: More routes between these airports
Route: +
File this flight plan on PilotEdge
Remarks:
Altitude:
(Current/Filed)
0ft
Speed:
(Current/Filed)
0kts
Departed: 12-Jan-19 12:08 PM
Arrived: 12-Jan-19 12:45 PM
Distance/Time
Traveled:
0nm/0:37
Distance/Time
To Go:
Arrived

Flight Plot

Page will automatically refresh every two minutes.


Map Options




Map Legend


Flown Route
Filed Route
Departure Airport
Arrival Airport
Navaid (VOR, NDB)
Fix

Horizontal Profiles

Position Reports

Time Latitude Longitude Heading Altitude Ground
Speed
12-Jan-19 12:06 35.213034 -120.599446 312 1753ft 112kts
12-Jan-19 12:07 35.229717 -120.627932 307 641ft 118kts
12-Jan-19 12:08 35.245935 -120.654653 306 935ft 95kts
12-Jan-19 12:09 35.258798 -120.682200 265 1189ft 94kts
12-Jan-19 12:10 35.237126 -120.697918 212 1290ft 82kts
12-Jan-19 12:11 35.218186 -120.707893 198 1412ft 90kts
12-Jan-19 12:12 35.194788 -120.713449 154 1685ft 100kts
12-Jan-19 12:13 35.186183 -120.684631 108 2058ft 95kts
12-Jan-19 12:14 35.163933 -120.679240 186 2539ft 89kts
12-Jan-19 12:15 35.140644 -120.679232 141 3015ft 87kts
12-Jan-19 12:16 35.135275 -120.657115 97 3412ft 84kts
12-Jan-19 12:17 35.131380 -120.627097 98 3517ft 110kts
12-Jan-19 12:18 35.126809 -120.590920 98 3514ft 122kts
12-Jan-19 12:19 35.122426 -120.553463 98 3513ft 122kts
12-Jan-19 12:20 35.118189 -120.515533 98 3512ft 123kts
12-Jan-19 12:21 35.114245 -120.478166 98 3512ft 123kts
12-Jan-19 12:22 35.110435 -120.442008 98 3515ft 115kts
12-Jan-19 12:23 35.107131 -120.407999 97 3549ft 111kts
12-Jan-19 12:24 35.104100 -120.372828 97 3515ft 114kts
12-Jan-19 12:25 35.124052 -120.353338 6 3513ft 124kts
12-Jan-19 12:26 35.155927 -120.351073 6 3515ft 122kts
12-Jan-19 12:28 35.187548 -120.348880 6 3516ft 121kts
12-Jan-19 12:29 35.210958 -120.335503 88 3520ft 114kts
12-Jan-19 12:30 35.194750 -120.319035 215 3502ft 123kts
12-Jan-19 12:31 35.188389 -120.356966 265 3032ft 108kts
12-Jan-19 12:32 35.180347 -120.383081 199 2565ft 104kts
12-Jan-19 12:33 35.154413 -120.389114 188 2466ft 103kts
12-Jan-19 12:34 35.138519 -120.410630 244 2467ft 101kts
12-Jan-19 12:35 35.132406 -120.438959 284 2477ft 93kts
12-Jan-19 12:36 35.137464 -120.465236 285 2467ft 89kts
12-Jan-19 12:37 35.148824 -120.488416 310 2467ft 86kts
12-Jan-19 12:38 35.161690 -120.509495 307 2467ft 85kts
12-Jan-19 12:39 35.174608 -120.532004 305 2467ft 90kts
12-Jan-19 12:40 35.187524 -120.554979 307 2430ft 95kts
12-Jan-19 12:41 35.201635 -120.578569 307 2164ft 84kts
12-Jan-19 12:42 35.213619 -120.598545 307 1605ft 77kts
12-Jan-19 12:43 35.224239 -120.616619 303 735ft 66kts
12-Jan-19 12:44 35.233312 -120.633962 306 221ft 47kts
12-Jan-19 12:45 35.237442 -120.639910 8 191ft 1kts
12-Jan-19 12:46 35.237785 -120.638497 75 197ft 5kts
12-Jan-19 12:47 35.237888 -120.638728 265 196ft 0kts
12-Jan-19 12:48 35.237888 -120.638728 265 196ft 0kts
12-Jan-19 12:48 35.237888 -120.638728 265 196ft 0kts
12-Jan-19 12:49 35.237888 -120.638728 265 196ft 0kts
12-Jan-19 12:50 35.237888 -120.638728 265 196ft 0kts
12-Jan-19 12:51 35.237888 -120.638728 265 196ft 0kts
12-Jan-19 12:53 35.237888 -120.638728 265 196ft 0kts
12-Jan-19 12:54 35.237888 -120.638728 265 196ft 0kts
12-Jan-19 12:54 35.237888 -120.638728 265 196ft 0kts
12-Jan-19 12:55 35.237888 -120.638728 265 196ft 0kts
12-Jan-19 12:56 35.237888 -120.638728 265 196ft 0kts
12-Jan-19 12:57 35.237892 -120.638665 265 196ft 0kts
12-Jan-19 12:58 35.237892 -120.638665 265 196ft 0kts

Navigation Log

Ident Type
Flight plan parsing failed, navigation log unavailable